createdAt,value
2023-01-26T00:02:04.376Z,1.45
2023-01-26T00:04:32.070Z,1.42
2023-01-26T00:06:59.696Z,1.52
2023-01-26T00:09:27.349Z,1.54
2023-01-26T00:11:54.962Z,1.50
2023-01-26T00:14:22.600Z,1.53
2023-01-26T00:16:50.230Z,1.45
2023-01-26T00:19:19.472Z,1.27
2023-01-26T00:21:47.122Z,1.41
2023-01-26T00:24:14.863Z,1.44
2023-01-26T00:26:42.540Z,1.49
2023-01-26T00:29:10.225Z,0.72
2023-01-26T00:31:37.890Z,1.47
2023-01-26T00:34:05.551Z,1.40
2023-01-26T00:36:37.579Z,1.44
2023-01-26T00:39:05.258Z,1.40
2023-01-26T00:41:50.412Z,1.48
2023-01-26T00:44:18.095Z,1.50
2023-01-26T00:46:46.684Z,1.40
2023-01-26T00:49:14.451Z,1.49
2023-01-26T00:51:43.406Z,1.46
2023-01-26T00:54:11.087Z,1.49
2023-01-26T00:56:40.050Z,1.49
2023-01-26T00:59:07.735Z,1.44
2023-01-26T01:01:35.427Z,1.38
2023-01-26T01:04:03.117Z,1.25
2023-01-26T01:06:30.801Z,1.32
2023-01-26T01:08:59.769Z,1.32
2023-01-26T01:11:28.811Z,1.41
2023-01-26T01:13:58.001Z,1.36
2023-01-26T01:16:28.543Z,1.31
2023-01-26T01:18:56.917Z,1.27
2023-01-26T01:21:25.633Z,1.29
2023-01-26T01:23:54.237Z,1.12
2023-01-26T01:26:23.256Z,1.15
2023-01-26T01:28:55.646Z,1.10
2023-01-26T01:31:23.946Z,1.18
2023-01-26T01:33:52.860Z,1.11
2023-01-26T01:36:20.785Z,1.19
2023-01-26T01:38:48.822Z,1.18
2023-01-26T01:41:18.553Z,1.03
2023-01-26T01:43:47.870Z,1.20
2023-01-26T01:46:22.286Z,0.97
2023-01-26T01:48:54.989Z,1.06
2023-01-26T01:51:31.951Z,0.72
2023-01-26T01:54:05.507Z,0.98
2023-01-26T01:56:35.262Z,1.11
2023-01-26T01:59:06.947Z,1.07
2023-01-26T02:01:34.676Z,1.05
2023-01-26T02:04:06.060Z,1.15
2023-01-26T02:06:40.497Z,1.00
2023-01-26T02:09:29.959Z,1.09
2023-01-26T02:11:59.549Z,1.12
2023-01-26T02:14:29.739Z,1.14
2023-01-26T02:16:57.383Z,1.16
2023-01-26T02:19:33.971Z,1.13
2023-01-26T02:22:11.488Z,1.11
2023-01-26T02:24:41.082Z,1.07
2023-01-26T02:27:10.175Z,1.11
2023-01-26T02:29:38.271Z,1.15
2023-01-26T02:32:06.533Z,1.09
2023-01-26T02:34:34.305Z,1.07
2023-01-26T02:37:02.290Z,1.07
2023-01-26T02:39:45.001Z,1.15
2023-01-26T02:42:32.078Z,1.10
2023-01-26T02:45:00.907Z,1.14
2023-01-26T02:47:29.276Z,1.10
2023-01-26T02:49:58.171Z,1.17
2023-01-26T02:52:29.020Z,1.13
2023-01-26T02:55:22.350Z,1.11
2023-01-26T02:57:52.839Z,1.08
2023-01-26T03:00:22.327Z,0.96
2023-01-26T03:02:52.855Z,0.99
2023-01-26T03:05:20.727Z,1.08
2023-01-26T03:07:48.521Z,1.10
2023-01-26T03:10:18.129Z,0.73
2023-01-26T03:12:45.947Z,1.01
2023-01-26T03:15:32.696Z,0.97
2023-01-26T03:18:30.933Z,0.90
2023-01-26T03:21:18.250Z,0.74
2023-01-26T03:24:04.589Z,0.77
2023-01-26T03:26:51.373Z,0.88
2023-01-26T03:29:19.934Z,0.90
2023-01-26T03:31:49.712Z,0.14
2023-01-26T03:34:18.303Z,0.83
2023-01-26T03:36:47.415Z,0.79
2023-01-26T03:39:30.283Z,0.76
2023-01-26T03:42:15.593Z,0.75
2023-01-26T03:45:00.882Z,0.69
2023-01-26T03:47:47.996Z,0.79
2023-01-26T03:50:34.063Z,0.65
2023-01-26T03:53:19.309Z,0.65
2023-01-26T03:56:04.482Z,0.65
2023-01-26T03:58:32.208Z,0.67
2023-01-26T04:01:00.295Z,0.73
2023-01-26T04:03:47.282Z,0.74
2023-01-26T04:06:32.960Z,0.58
2023-01-26T04:09:00.675Z,0.74
2023-01-26T04:11:28.453Z,0.51
2023-01-26T04:14:13.792Z,0.64
2023-01-26T04:17:00.674Z,0.75
2023-01-26T04:19:47.312Z,0.72
2023-01-26T04:22:15.100Z,0.72
2023-01-26T04:24:44.822Z,0.72
2023-01-26T04:27:12.762Z,0.66
2023-01-26T04:29:42.094Z,0.68
2023-01-26T04:32:09.817Z,0.54
2023-01-26T04:34:38.936Z,0.54
2023-01-26T04:37:13.770Z,0.45
2023-01-26T04:39:46.427Z,0.52
2023-01-26T04:42:14.487Z,0.51
2023-01-26T04:44:42.783Z,0.47
2023-01-26T04:47:10.541Z,0.57
2023-01-26T04:49:40.536Z,0.68
2023-01-26T04:52:08.550Z,0.64
2023-01-26T04:54:36.644Z,0.69
2023-01-26T04:57:04.487Z,0.58
2023-01-26T04:59:32.357Z,0.67
2023-01-26T05:02:02.050Z,0.61
2023-01-26T05:04:29.929Z,0.66
2023-01-26T05:06:58.997Z,0.72
2023-01-26T05:09:27.730Z,0.67
2023-01-26T05:12:30.362Z,0.71
2023-01-26T05:15:27.314Z,0.67
2023-01-26T05:18:15.915Z,0.67
2023-01-26T05:21:10.059Z,0.66
2023-01-26T05:23:43.641Z,0.72
2023-01-26T05:26:28.044Z,0.64
2023-01-26T05:28:58.407Z,0.70
2023-01-26T05:31:27.136Z,0.60
2023-01-26T05:33:55.641Z,0.66
2023-01-26T05:36:24.938Z,0.72
2023-01-26T05:38:53.919Z,0.72
2023-01-26T05:41:25.248Z,0.76
2023-01-26T05:44:15.874Z,0.79
2023-01-26T05:46:47.984Z,0.68
2023-01-26T05:49:16.118Z,0.75
2023-01-26T05:51:43.869Z,0.76
2023-01-26T05:54:12.997Z,0.77
2023-01-26T05:56:40.993Z,0.83
2023-01-26T05:59:09.171Z,0.74
2023-01-26T06:01:36.953Z,0.63
2023-01-26T06:04:08.317Z,0.58
2023-01-26T06:06:42.790Z,0.66
2023-01-26T06:09:41.188Z,0.68
2023-01-26T06:12:31.380Z,0.72
2023-01-26T06:15:03.845Z,0.75
2023-01-26T06:17:40.990Z,0.67
2023-01-26T06:20:14.675Z,0.77
2023-01-26T06:22:45.598Z,0.77
2023-01-26T06:25:14.879Z,0.84
2023-01-26T06:27:42.897Z,0.80
2023-01-26T06:30:20.346Z,0.72
2023-01-26T06:32:49.232Z,0.68
2023-01-26T06:35:18.571Z,0.74
2023-01-26T06:37:49.198Z,0.70
2023-01-26T06:40:19.222Z,0.75
2023-01-26T06:42:48.485Z,0.75
2023-01-26T06:45:17.345Z,0.75
2023-01-26T06:47:48.724Z,0.75
2023-01-26T06:50:17.909Z,0.68
2023-01-26T06:52:48.649Z,0.72
2023-01-26T06:55:41.669Z,0.73
2023-01-26T06:58:35.521Z,0.76
2023-01-26T07:01:11.718Z,0.69
2023-01-26T07:03:39.486Z,0.66
2023-01-26T07:06:07.915Z,0.71
2023-01-26T07:08:35.564Z,0.77
2023-01-26T07:11:05.134Z,0.64
2023-01-26T07:13:33.853Z,0.77
2023-01-26T07:16:02.450Z,0.64
2023-01-26T07:18:30.243Z,0.72
2023-01-26T07:21:01.477Z,0.59
2023-01-26T07:23:29.143Z,0.58
2023-01-26T07:25:57.195Z,0.47
2023-01-26T07:28:26.404Z,0.60
2023-01-26T07:30:58.046Z,0.70
2023-01-26T07:33:25.697Z,0.69
2023-01-26T07:35:54.037Z,0.69
2023-01-26T07:38:22.110Z,0.69
2023-01-26T07:40:49.837Z,0.70
2023-01-26T07:43:17.441Z,0.58
2023-01-26T07:45:51.282Z,0.54
2023-01-26T07:48:19.574Z,0.55
2023-01-26T07:50:48.501Z,0.56
2023-01-26T07:53:19.172Z,0.62
2023-01-26T07:55:47.033Z,0.57
2023-01-26T07:58:14.913Z,0.52
2023-01-26T08:00:42.598Z,0.53
2023-01-26T08:03:11.672Z,0.44
2023-01-26T08:05:39.378Z,0.45
2023-01-26T08:08:09.591Z,0.50
2023-01-26T08:10:37.350Z,0.52
2023-01-26T08:13:05.024Z,0.56
2023-01-26T08:15:32.740Z,0.63
2023-01-26T08:18:03.545Z,0.68
2023-01-26T08:20:32.716Z,0.63
2023-01-26T08:23:00.584Z,0.66
2023-01-26T08:25:28.272Z,0.71
2023-01-26T08:27:56.268Z,0.50
2023-01-26T08:30:23.898Z,0.40
2023-01-26T08:32:51.627Z,0.53
2023-01-26T08:35:19.249Z,0.63
2023-01-26T08:37:48.248Z,0.57
2023-01-26T08:40:16.411Z,0.49
2023-01-26T08:42:44.061Z,0.54
2023-01-26T08:45:12.358Z,0.65
2023-01-26T08:47:40.032Z,0.51
2023-01-26T08:50:08.444Z,0.46
2023-01-26T08:52:36.237Z,0.54
2023-01-26T08:55:05.827Z,0.64
2023-01-26T08:57:33.494Z,0.58
2023-01-26T09:00:01.225Z,0.53
2023-01-26T09:02:29.363Z,0.55
2023-01-26T09:04:57.109Z,0.52
2023-01-26T09:07:24.885Z,0.59
2023-01-26T09:09:52.506Z,0.55
2023-01-26T09:12:21.521Z,0.62
2023-01-26T09:14:49.119Z,0.60
2023-01-26T09:17:16.744Z,0.54
2023-01-26T09:19:45.051Z,0.53
2023-01-26T09:22:12.865Z,0.60
2023-01-26T09:24:40.525Z,0.56
2023-01-26T09:27:09.075Z,0.63
2023-01-26T09:29:38.047Z,0.70
2023-01-26T09:32:06.700Z,0.65
2023-01-26T09:34:34.491Z,0.69
2023-01-26T09:37:02.243Z,0.66
2023-01-26T09:39:29.964Z,0.69
2023-01-26T09:42:10.882Z,0.75
2023-01-26T09:44:46.924Z,0.60
2023-01-26T09:47:22.692Z,0.93
2023-01-26T09:50:08.657Z,0.99
2023-01-26T09:52:41.880Z,0.99
2023-01-26T09:55:16.708Z,1.04
2023-01-26T09:57:49.921Z,0.97
2023-01-26T10:00:23.621Z,0.79
2023-01-26T10:03:04.525Z,0.91
2023-01-26T10:05:42.409Z,0.98
2023-01-26T10:08:13.955Z,1.15
2023-01-26T10:10:47.932Z,0.97
2023-01-26T10:13:18.203Z,0.99
2023-01-26T10:15:50.434Z,0.98
2023-01-26T10:18:22.923Z,0.92
2023-01-26T10:20:54.923Z,1.07
2023-01-26T10:23:25.835Z,1.06
2023-01-26T10:25:55.014Z,1.03
2023-01-26T10:28:28.358Z,1.15
2023-01-26T10:30:58.190Z,1.18
2023-01-26T10:33:29.039Z,1.06
2023-01-26T10:35:56.938Z,1.10
2023-01-26T10:38:29.468Z,0.94
2023-01-26T10:40:58.415Z,0.95
2023-01-26T10:43:26.635Z,0.97
2023-01-26T10:45:54.263Z,0.80
2023-01-26T10:48:26.599Z,0.74
2023-01-26T10:50:55.635Z,0.95
2023-01-26T10:53:25.341Z,0.95
2023-01-26T10:56:02.634Z,0.84
2023-01-26T10:58:47.526Z,0.89
2023-01-26T11:01:18.580Z,0.86
2023-01-26T11:04:03.318Z,1.02
2023-01-26T11:06:31.593Z,1.02
2023-01-26T11:09:10.414Z,1.00
2023-01-26T11:11:38.630Z,0.98
2023-01-26T11:14:14.764Z,0.91
2023-01-26T11:16:47.668Z,1.00
2023-01-26T11:19:26.211Z,0.94
2023-01-26T11:21:59.499Z,0.89
2023-01-26T11:24:34.595Z,0.88
2023-01-26T11:27:22.769Z,0.76
2023-01-26T11:30:19.969Z,0.79
2023-01-26T11:32:55.828Z,0.81
2023-01-26T11:35:33.041Z,0.77
2023-01-26T11:38:14.176Z,0.77
2023-01-26T11:40:49.004Z,0.94
2023-01-26T11:43:46.529Z,1.00
2023-01-26T11:46:29.957Z,1.03
2023-01-26T11:49:08.634Z,1.12
2023-01-26T11:51:52.590Z,0.69
2023-01-26T11:54:34.372Z,0.71
2023-01-26T11:57:12.203Z,0.86
2023-01-26T11:59:43.479Z,0.84
2023-01-26T12:02:28.287Z,0.88
2023-01-26T12:04:58.734Z,0.91
2023-01-26T12:07:31.195Z,0.63
2023-01-26T12:10:03.153Z,0.92
2023-01-26T12:12:38.605Z,0.89
2023-01-26T12:15:14.344Z,0.89
2023-01-26T12:17:49.742Z,0.97
2023-01-26T12:20:27.160Z,0.82
2023-01-26T12:23:04.554Z,0.67
2023-01-26T12:25:36.532Z,0.75
2023-01-26T12:28:17.784Z,0.71
2023-01-26T12:30:52.633Z,0.88
2023-01-26T12:33:20.581Z,0.80
2023-01-26T12:35:59.256Z,0.64
2023-01-26T12:38:39.094Z,0.51
2023-01-26T12:41:14.418Z,0.68
2023-01-26T12:43:58.756Z,0.70
2023-01-26T12:46:33.279Z,0.78
2023-01-26T12:49:06.248Z,0.79
2023-01-26T12:51:40.921Z,0.75
2023-01-26T12:54:17.536Z,0.86
2023-01-26T12:56:51.350Z,0.87
2023-01-26T12:59:46.641Z,0.82
2023-01-26T13:02:21.629Z,0.98
2023-01-26T13:04:51.094Z,0.73
2023-01-26T13:07:35.450Z,0.81
2023-01-26T13:10:44.813Z,0.64
2023-01-26T13:13:31.149Z,0.67
2023-01-26T13:16:32.632Z,0.47
2023-01-26T13:19:01.758Z,0.74
2023-01-26T13:21:42.060Z,0.89
2023-01-26T13:24:43.319Z,0.68
2023-01-26T13:27:31.892Z,0.76
2023-01-26T13:30:00.172Z,0.84
2023-01-26T13:33:10.004Z,0.88
2023-01-26T13:35:38.855Z,1.01
2023-01-26T13:38:15.668Z,0.78
2023-01-26T13:40:46.232Z,0.94
2023-01-26T13:43:27.126Z,1.08
2023-01-26T13:46:05.823Z,1.12
2023-01-26T13:48:41.116Z,1.09
2023-01-26T13:51:10.441Z,1.05
2023-01-26T13:53:41.316Z,0.97
2023-01-26T13:56:23.480Z,0.45
2023-01-26T13:58:53.251Z,0.56
2023-01-26T14:01:22.060Z,0.55
2023-01-26T14:03:49.808Z,0.65
2023-01-26T14:06:20.708Z,0.39
2023-01-26T14:08:54.044Z,0.51
2023-01-26T14:11:24.321Z,0.62
2023-01-26T14:13:56.036Z,0.55
2023-01-26T14:16:26.655Z,0.75
2023-01-26T14:19:06.235Z,0.83
2023-01-26T14:21:34.091Z,0.91
2023-01-26T14:24:01.821Z,0.82
2023-01-26T14:26:32.400Z,0.90
2023-01-26T14:29:03.295Z,0.91
2023-01-26T14:31:32.178Z,0.92
2023-01-26T14:34:00.757Z,0.92
2023-01-26T14:36:32.168Z,0.86
2023-01-26T14:39:01.033Z,0.97
2023-01-26T14:41:31.864Z,0.96
2023-01-26T14:44:01.823Z,0.95
2023-01-26T14:46:37.377Z,0.90
2023-01-26T14:49:10.718Z,0.76
2023-01-26T14:51:38.820Z,0.92
2023-01-26T14:54:15.674Z,0.72
2023-01-26T14:56:48.661Z,0.72
2023-01-26T14:59:23.323Z,0.68
2023-01-26T15:01:51.265Z,0.75
2023-01-26T15:04:25.918Z,0.76
2023-01-26T15:06:53.623Z,0.76
2023-01-26T15:09:24.124Z,0.42
2023-01-26T15:12:15.241Z,0.57
2023-01-26T15:14:52.229Z,0.44
2023-01-26T15:17:39.421Z,0.51
2023-01-26T15:20:27.383Z,0.53
2023-01-26T15:22:55.508Z,0.51
2023-01-26T15:25:26.285Z,0.58
2023-01-26T15:27:58.512Z,0.58
2023-01-26T15:30:31.430Z,0.53
2023-01-26T15:32:59.938Z,0.61
2023-01-26T15:35:29.396Z,0.51
2023-01-26T15:38:02.575Z,0.58
2023-01-26T15:40:31.325Z,0.59
2023-01-26T15:43:13.224Z,0.53
2023-01-26T15:45:48.009Z,0.63
2023-01-26T15:48:15.624Z,0.41
2023-01-26T15:50:43.310Z,0.35
2023-01-26T15:53:14.408Z,0.18
2023-01-26T15:55:43.760Z,-0.32
2023-01-26T15:58:11.354Z,0.42
2023-01-26T16:00:40.030Z,0.43
2023-01-26T16:03:15.666Z,0.40
2023-01-26T16:05:44.029Z,-0.25
2023-01-26T16:08:11.735Z,0.44
2023-01-26T16:10:39.523Z,0.37
2023-01-26T16:13:10.699Z,0.41
2023-01-26T16:15:40.981Z,0.43
2023-01-26T16:18:10.194Z,0.40
2023-01-26T16:20:40.787Z,0.43
2023-01-26T16:23:17.942Z,0.16
2023-01-26T16:25:46.407Z,0.41
2023-01-26T16:28:14.768Z,0.50
2023-01-26T16:30:43.782Z,0.52
2023-01-26T16:33:15.400Z,0.49
2023-01-26T16:35:43.465Z,0.49
2023-01-26T16:38:12.960Z,0.35
2023-01-26T16:40:41.709Z,0.47
2023-01-26T16:43:17.414Z,0.44
2023-01-26T16:45:45.187Z,0.35
2023-01-26T16:48:16.604Z,0.42
2023-01-26T16:50:45.598Z,0.40
2023-01-26T16:53:19.189Z,0.32
2023-01-26T16:55:46.938Z,0.41
2023-01-26T16:58:14.582Z,0.40
2023-01-26T17:00:42.366Z,0.47
2023-01-26T17:03:12.905Z,0.46
2023-01-26T17:05:42.288Z,0.36
2023-01-26T17:08:10.042Z,0.33
2023-01-26T17:10:40.113Z,0.44
2023-01-26T17:13:14.997Z,0.48
2023-01-26T17:15:42.725Z,0.49
2023-01-26T17:18:11.911Z,0.42
2023-01-26T17:20:41.259Z,0.50
2023-01-26T17:23:10.315Z,0.45
2023-01-26T17:25:37.897Z,0.46
2023-01-26T17:28:05.657Z,0.37
2023-01-26T17:30:33.526Z,0.35
2023-01-26T17:33:01.927Z,0.33
2023-01-26T17:35:29.601Z,0.32
2023-01-26T17:37:57.237Z,0.37
2023-01-26T17:40:26.237Z,0.41
2023-01-26T17:42:54.391Z,0.48
2023-01-26T17:45:23.166Z,0.46
2023-01-26T17:47:50.849Z,0.42
2023-01-26T17:50:18.526Z,0.41
2023-01-26T17:52:46.188Z,0.57
2023-01-26T17:55:14.047Z,0.56
2023-01-26T17:57:43.202Z,0.57
2023-01-26T18:00:12.911Z,0.56
2023-01-26T18:02:40.691Z,0.58
2023-01-26T18:05:10.542Z,0.62
2023-01-26T18:07:38.373Z,0.58
2023-01-26T18:10:07.113Z,0.52
2023-01-26T18:12:36.596Z,0.48
2023-01-26T18:15:06.692Z,0.44
2023-01-26T18:17:34.509Z,0.47
2023-01-26T18:20:02.132Z,0.57
2023-01-26T18:22:30.042Z,0.44
2023-01-26T18:24:57.893Z,0.46
2023-01-26T18:27:25.729Z,0.35
2023-01-26T18:29:53.941Z,0.57
2023-01-26T18:32:22.952Z,0.42
2023-01-26T18:34:50.666Z,0.38
2023-01-26T18:37:18.341Z,0.30
2023-01-26T18:39:45.991Z,0.32
2023-01-26T18:42:13.635Z,0.42
2023-01-26T18:44:41.523Z,0.45
2023-01-26T18:47:10.268Z,-0.17
2023-01-26T18:49:39.389Z,0.17
2023-01-26T18:52:07.021Z,0.33
2023-01-26T18:54:34.905Z,0.36
2023-01-26T18:57:02.561Z,0.39
2023-01-26T18:59:30.435Z,0.39
2023-01-26T19:01:58.129Z,0.38
2023-01-26T19:04:25.980Z,0.36
2023-01-26T19:06:54.990Z,0.34
2023-01-26T19:09:22.641Z,0.36
2023-01-26T19:11:51.225Z,0.30
2023-01-26T19:14:18.830Z,0.24
2023-01-26T19:16:48.988Z,0.25
2023-01-26T19:19:16.741Z,0.35
2023-01-26T19:21:44.374Z,0.38
2023-01-26T19:24:13.434Z,0.43
2023-01-26T19:26:41.112Z,0.50
2023-01-26T19:29:10.657Z,0.38
2023-01-26T19:31:38.410Z,0.31
2023-01-26T19:34:08.661Z,0.30
2023-01-26T19:36:37.577Z,0.39
2023-01-26T19:39:06.184Z,0.28
2023-01-26T19:41:35.717Z,0.28
2023-01-26T19:44:03.468Z,0.27
2023-01-26T19:46:31.328Z,0.24
2023-01-26T19:48:59.019Z,0.27
2023-01-26T19:51:27.693Z,0.35
2023-01-26T19:53:57.310Z,0.35
2023-01-26T19:56:26.685Z,0.32
2023-01-26T19:58:57.379Z,0.28
2023-01-26T20:01:25.696Z,0.26
2023-01-26T20:03:54.772Z,0.25
2023-01-26T20:06:24.649Z,0.31
2023-01-26T20:08:54.114Z,0.29
2023-01-26T20:11:25.020Z,0.21
2023-01-26T20:13:56.996Z,0.24
2023-01-26T20:16:24.879Z,0.31
2023-01-26T20:18:52.620Z,0.27
2023-01-26T20:21:20.267Z,0.14
2023-01-26T20:23:54.350Z,0.28
2023-01-26T20:26:23.912Z,0.30
2023-01-26T20:28:51.766Z,0.10
2023-01-26T20:31:22.855Z,0.16
2023-01-26T20:33:52.845Z,0.24
2023-01-26T20:36:23.534Z,0.20
2023-01-26T20:38:51.324Z,0.26
2023-01-26T20:41:22.309Z,0.21
2023-01-26T20:43:59.707Z,0.24
2023-01-26T20:46:31.979Z,0.18
2023-01-26T20:49:00.110Z,0.14
2023-01-26T20:51:30.351Z,0.21
2023-01-26T20:53:59.111Z,0.25
2023-01-26T20:56:27.514Z,0.17
2023-01-26T20:58:56.747Z,0.12
2023-01-26T21:01:25.062Z,0.12
2023-01-26T21:03:54.288Z,-0.09
2023-01-26T21:06:24.067Z,0.01
2023-01-26T21:08:55.008Z,0.05
2023-01-26T21:11:24.924Z,0.08
2023-01-26T21:13:52.809Z,0.17
2023-01-26T21:16:20.700Z,-0.10
2023-01-26T21:18:49.311Z,0.64
2023-01-26T21:21:18.939Z,0.72
2023-01-26T21:23:46.892Z,0.80
2023-01-26T21:26:16.805Z,0.60
2023-01-26T21:28:44.981Z,-0.10
2023-01-26T21:31:14.691Z,0.38
2023-01-26T21:33:44.609Z,0.30
2023-01-26T21:36:13.993Z,0.34
2023-01-26T21:38:44.729Z,0.26
2023-01-26T21:41:32.287Z,0.16
2023-01-26T21:44:01.242Z,0.20
2023-01-26T21:46:30.426Z,0.25
2023-01-26T21:48:58.201Z,0.21
2023-01-26T21:51:44.296Z,0.27
2023-01-26T21:54:13.828Z,0.10
2023-01-26T21:56:41.605Z,0.20
2023-01-26T21:59:14.541Z,0.14
2023-01-26T22:01:44.597Z,0.17
2023-01-26T22:04:15.411Z,0.27
2023-01-26T22:06:43.489Z,0.16
2023-01-26T22:09:14.818Z,0.14
2023-01-26T22:11:42.714Z,0.24
2023-01-26T22:14:14.831Z,0.11
2023-01-26T22:16:42.611Z,0.23
2023-01-26T22:19:11.141Z,0.06
2023-01-26T22:21:39.213Z,0.17
2023-01-26T22:24:09.378Z,-0.06
2023-01-26T22:26:40.848Z,0.04
2023-01-26T22:29:08.798Z,-0.02
2023-01-26T22:31:36.452Z,0.16
2023-01-26T22:34:04.237Z,0.06
2023-01-26T22:36:32.081Z,0.11
2023-01-26T22:39:00.754Z,0.14
2023-01-26T22:41:30.118Z,0.04
2023-01-26T22:44:00.446Z,-0.11
2023-01-26T22:46:30.355Z,0.07
2023-01-26T22:48:59.489Z,-0.02
2023-01-26T22:51:29.082Z,-0.10
2023-01-26T22:53:58.563Z,0.15
2023-01-26T22:56:26.898Z,0.15
2023-01-26T22:58:58.460Z,0.14
2023-01-26T23:01:30.606Z,0.19
2023-01-26T23:04:00.306Z,0.05
2023-01-26T23:06:28.304Z,0.15
2023-01-26T23:08:58.066Z,0.12
2023-01-26T23:11:27.733Z,0.19
2023-01-26T23:13:57.101Z,0.20
2023-01-26T23:16:25.908Z,0.20
2023-01-26T23:18:57.473Z,0.13
2023-01-26T23:21:26.599Z,0.10
2023-01-26T23:23:54.361Z,0.08
2023-01-26T23:26:22.602Z,0.14
2023-01-26T23:28:50.458Z,0.22
2023-01-26T23:31:19.368Z,0.24
2023-01-26T23:33:47.354Z,0.24
2023-01-26T23:36:16.494Z,0.33
2023-01-26T23:38:45.643Z,0.37
2023-01-26T23:41:13.869Z,0.43
2023-01-26T23:43:41.611Z,0.36
2023-01-26T23:46:11.143Z,0.18
2023-01-26T23:48:38.817Z,0.28
2023-01-26T23:51:09.326Z,0.31
2023-01-26T23:53:38.889Z,0.24
2023-01-26T23:56:08.615Z,0.31
2023-01-26T23:58:37.327Z,0.33
